createdAt,value
2022-10-13T00:01:55.937Z,19.77
2022-10-13T00:04:42.928Z,19.58
2022-10-13T00:07:22.948Z,18.65
2022-10-13T00:10:16.925Z,17.60
2022-10-13T00:13:03.918Z,18.38
2022-10-13T00:15:38.088Z,18.75
2022-10-13T00:18:24.928Z,18.55
2022-10-13T00:20:58.025Z,17.83
2022-10-13T00:23:45.933Z,17.63
2022-10-13T00:26:27.920Z,17.02
2022-10-13T00:29:21.939Z,18.05
2022-10-13T00:32:08.929Z,18.27
2022-10-13T00:34:44.009Z,18.92
2022-10-13T00:37:31.934Z,17.95
2022-10-13T00:40:05.010Z,16.75
2022-10-13T00:42:51.929Z,17.70
2022-10-13T00:45:37.919Z,18.60
2022-10-13T00:48:34.951Z,18.65
2022-10-13T00:51:08.010Z,18.25
2022-10-13T00:53:55.934Z,18.25
2022-10-13T00:56:31.135Z,17.50
2022-10-13T00:59:29.960Z,17.58
2022-10-13T01:02:05.031Z,18.40
2022-10-13T01:04:53.988Z,18.70
2022-10-13T01:07:27.136Z,18.83
2022-10-13T01:10:13.948Z,18.10
2022-10-13T01:13:01.016Z,17.25
2022-10-13T01:16:07.944Z,18.10
2022-10-13T01:18:47.029Z,18.55
2022-10-13T01:21:41.939Z,18.55
2022-10-13T01:24:59.965Z,17.77
2022-10-13T01:28:11.981Z,17.00
2022-10-13T01:31:04.951Z,18.00
2022-10-13T01:33:52.025Z,18.15
2022-10-13T01:37:07.976Z,17.92
2022-10-13T01:39:54.284Z,17.58
2022-10-13T01:42:53.952Z,18.00
2022-10-13T01:45:31.036Z,17.95
2022-10-13T01:48:17.964Z,17.63
2022-10-13T01:50:52.036Z,18.48
2022-10-13T01:53:38.980Z,17.85
2022-10-13T01:56:12.115Z,18.45
2022-10-13T01:59:02.968Z,18.58
2022-10-13T02:01:46.462Z,18.95
2022-10-13T02:04:42.980Z,18.30
2022-10-13T02:07:28.124Z,17.08
2022-10-13T02:10:34.962Z,17.65
2022-10-13T02:13:17.983Z,17.65
2022-10-13T02:16:14.954Z,17.42
2022-10-13T02:19:03.995Z,17.75
2022-10-13T02:21:38.078Z,18.40
2022-10-13T02:24:24.988Z,16.05
2022-10-13T02:26:59.077Z,17.50
2022-10-13T02:29:56.973Z,18.05
2022-10-13T02:32:31.042Z,17.27
2022-10-13T02:35:17.967Z,18.00
2022-10-13T02:37:51.069Z,21.38
2022-10-13T02:40:37.976Z,24.42
2022-10-13T02:43:17.985Z,22.88
2022-10-13T02:46:04.976Z,22.95
2022-10-13T02:48:44.968Z,21.95
2022-10-13T02:51:40.326Z,22.55
2022-10-13T02:54:26.990Z,24.48
2022-10-13T02:57:06.998Z,22.88
2022-10-13T02:59:53.987Z,21.10
2022-10-13T03:02:33.965Z,19.67
2022-10-13T03:05:28.006Z,19.77
2022-10-13T03:08:14.996Z,18.90
2022-10-13T03:10:48.067Z,20.90
2022-10-13T03:13:34.983Z,19.40
2022-10-13T03:16:08.098Z,19.83
2022-10-13T03:18:55.003Z,19.90
2022-10-13T03:21:35.020Z,18.60
2022-10-13T03:24:29.018Z,20.50
2022-10-13T03:27:22.997Z,19.92
2022-10-13T03:30:18.017Z,18.73
2022-10-13T03:33:04.980Z,21.08
2022-10-13T03:35:38.071Z,20.58
2022-10-13T03:38:25.010Z,19.15
2022-10-13T03:40:58.062Z,20.55
2022-10-13T03:43:46.004Z,20.85
2022-10-13T03:46:28.014Z,18.95
2022-10-13T03:49:25.003Z,20.58
2022-10-13T03:52:12.009Z,19.98
2022-10-13T03:54:45.051Z,19.08
2022-10-13T03:57:32.024Z,20.73
2022-10-13T04:00:08.680Z,19.80
2022-10-13T04:02:56.028Z,21.27
2022-10-13T04:05:35.999Z,18.98
2022-10-13T04:08:23.028Z,19.73
2022-10-13T04:11:12.062Z,18.38
2022-10-13T04:14:06.007Z,19.00
2022-10-13T04:17:00.012Z,19.33
2022-10-13T04:19:47.003Z,19.05
2022-10-13T04:22:27.030Z,18.63
2022-10-13T04:25:15.013Z,18.45
2022-10-13T04:27:55.015Z,18.75
2022-10-13T04:30:49.655Z,17.38
2022-10-13T04:33:37.132Z,17.42
2022-10-13T04:36:12.084Z,15.93
2022-10-13T04:39:00.021Z,17.20
2022-10-13T04:41:33.110Z,18.13
2022-10-13T04:44:20.017Z,18.08
2022-10-13T04:47:00.033Z,21.63
2022-10-13T04:49:54.020Z,22.17
2022-10-13T04:52:42.014Z,16.30
2022-10-13T04:55:22.028Z,16.77
2022-10-13T04:58:09.017Z,17.10
2022-10-13T05:00:42.498Z,16.25
2022-10-13T05:03:29.046Z,15.93
2022-10-13T05:06:02.148Z,16.85
2022-10-13T05:08:49.031Z,17.10
2022-10-13T05:11:22.280Z,16.65
2022-10-13T05:14:09.055Z,18.80
2022-10-13T05:16:49.019Z,19.80
2022-10-13T05:19:43.055Z,16.13
2022-10-13T05:22:37.034Z,17.98
2022-10-13T05:25:33.803Z,19.83
2022-10-13T05:28:28.074Z,17.90
2022-10-13T05:31:31.042Z,20.10
2022-10-13T05:34:18.068Z,18.35
2022-10-13T05:36:51.169Z,16.90
2022-10-13T05:39:38.052Z,17.50
2022-10-13T05:42:18.359Z,19.50
2022-10-13T05:45:05.039Z,17.63
2022-10-13T05:47:45.059Z,16.33
2022-10-13T05:50:32.056Z,19.00
2022-10-13T05:53:13.122Z,16.45
2022-10-13T05:56:13.052Z,14.43
2022-10-13T05:59:13.066Z,16.90
2022-10-13T06:02:07.063Z,18.40
2022-10-13T06:04:57.052Z,17.20
2022-10-13T06:07:38.093Z,16.33
2022-10-13T06:10:32.056Z,17.75
2022-10-13T06:13:19.078Z,18.27
2022-10-13T06:15:52.112Z,16.00
2022-10-13T06:18:39.081Z,15.60
2022-10-13T06:21:13.510Z,17.77
2022-10-13T06:24:00.045Z,16.48
2022-10-13T06:26:40.089Z,17.38
2022-10-13T06:29:34.044Z,15.40
2022-10-13T06:32:28.055Z,17.63
2022-10-13T06:35:15.064Z,16.83
2022-10-13T06:37:48.732Z,18.17
2022-10-13T06:40:35.077Z,20.38
2022-10-13T06:43:08.148Z,21.08
2022-10-13T06:45:55.079Z,19.92
2022-10-13T06:48:28.192Z,20.58
2022-10-13T06:51:18.072Z,21.58
2022-10-13T06:53:51.219Z,20.55
2022-10-13T06:56:38.057Z,19.77
2022-10-13T06:59:18.074Z,21.80
2022-10-13T07:02:12.085Z,20.48
2022-10-13T07:05:06.122Z,20.20
2022-10-13T07:08:01.070Z,19.70
2022-10-13T07:10:48.081Z,19.48
2022-10-13T07:13:30.376Z,21.00
2022-10-13T07:16:19.105Z,19.55
2022-10-13T07:18:54.204Z,19.23
2022-10-13T07:21:41.099Z,22.48
2022-10-13T07:24:21.092Z,21.60
2022-10-13T07:27:15.082Z,20.20
2022-10-13T07:30:09.085Z,19.35
2022-10-13T07:32:56.090Z,19.73
2022-10-13T07:35:36.073Z,21.08
2022-10-13T07:38:23.111Z,21.80
2022-10-13T07:41:03.098Z,21.00
2022-10-13T07:43:57.130Z,20.23
2022-10-13T07:46:51.096Z,21.55
2022-10-13T07:49:45.102Z,21.17
2022-10-13T07:52:39.109Z,22.40
2022-10-13T07:55:33.104Z,21.75
2022-10-13T07:58:27.097Z,21.25
2022-10-13T08:01:14.200Z,19.20
2022-10-13T08:03:50.392Z,22.25
2022-10-13T08:06:37.142Z,22.63
2022-10-13T08:09:11.431Z,22.95
2022-10-13T08:12:00.882Z,22.27
2022-10-13T08:14:36.260Z,21.17
2022-10-13T08:17:23.303Z,19.02
2022-10-13T08:19:57.170Z,20.48
2022-10-13T08:22:44.123Z,23.38
2022-10-13T08:25:24.104Z,22.42
2022-10-13T08:28:19.172Z,19.13
2022-10-13T08:31:13.283Z,19.80
2022-10-13T08:34:07.090Z,19.35
2022-10-13T08:36:54.114Z,19.35
2022-10-13T08:39:36.110Z,18.63
2022-10-13T08:42:26.145Z,21.05
2022-10-13T08:48:21.116Z,19.02
2022-10-13T08:50:58.192Z,19.48
2022-10-13T08:53:50.109Z,17.17
2022-10-13T08:56:31.344Z,17.73
2022-10-13T08:59:23.130Z,18.20
2022-10-13T09:02:00.502Z,17.95
2022-10-13T09:04:50.125Z,26.13
2022-10-13T09:07:51.163Z,28.90
2022-10-13T09:10:45.117Z,22.02
2022-10-13T09:13:39.148Z,21.42
2022-10-13T09:16:41.132Z,19.98
2022-10-13T09:19:43.132Z,19.92
2022-10-13T09:22:37.302Z,20.52
2022-10-13T09:25:28.125Z,19.60
2022-10-13T09:28:07.213Z,18.75
2022-10-13T09:30:55.150Z,17.60
2022-10-13T09:33:31.213Z,19.10
2022-10-13T09:36:24.162Z,18.65
2022-10-13T09:39:26.138Z,19.13
2022-10-13T09:42:34.167Z,22.23
2022-10-13T09:45:26.120Z,21.73
2022-10-13T09:48:28.145Z,18.42
2022-10-13T09:51:45.144Z,17.60
2022-10-13T09:54:53.145Z,21.80
2022-10-13T09:57:56.134Z,18.95
2022-10-13T10:00:32.249Z,17.70
2022-10-13T10:03:17.150Z,17.77
2022-10-13T10:05:58.194Z,18.60
2022-10-13T10:09:05.238Z,20.45
2022-10-13T10:11:54.151Z,16.00
2022-10-13T10:14:50.163Z,17.67
2022-10-13T10:17:54.163Z,17.00
2022-10-13T10:21:01.191Z,15.90
2022-10-13T10:23:49.262Z,16.52
2022-10-13T10:26:50.180Z,15.95
2022-10-13T10:30:13.204Z,17.17
2022-10-13T10:33:21.178Z,15.85
2022-10-13T10:36:23.162Z,18.15
2022-10-13T10:39:04.254Z,16.45
2022-10-13T10:42:27.172Z,16.80
2022-10-13T10:45:09.201Z,15.80
2022-10-13T10:48:08.188Z,15.60
2022-10-13T10:51:04.171Z,17.88
2022-10-13T10:54:00.182Z,15.90
2022-10-13T10:56:55.242Z,18.10
2022-10-13T10:59:57.184Z,17.23
2022-10-13T11:02:33.252Z,16.42
2022-10-13T11:05:21.187Z,16.33
2022-10-13T11:07:54.302Z,18.95
2022-10-13T11:10:41.170Z,18.98
2022-10-13T11:13:23.376Z,16.30
2022-10-13T11:16:44.180Z,15.93
2022-10-13T11:19:43.196Z,18.02
2022-10-13T11:22:42.184Z,16.90
2022-10-13T11:25:48.200Z,14.80
2022-10-13T11:28:27.390Z,14.05
2022-10-13T11:31:20.198Z,16.70
2022-10-13T11:33:53.372Z,16.58
2022-10-13T11:37:02.200Z,14.45
2022-10-13T11:40:19.266Z,14.45
2022-10-13T11:43:30.188Z,15.85
2022-10-13T11:46:29.201Z,14.55
2022-10-13T11:49:53.194Z,15.57
2022-10-13T11:53:29.206Z,16.50
2022-10-13T11:56:27.191Z,14.40
2022-10-13T11:59:07.245Z,14.57
2022-10-13T12:01:54.196Z,16.67
2022-10-13T12:04:36.221Z,15.73
2022-10-13T12:07:24.192Z,14.25
2022-10-13T12:10:03.292Z,15.48
2022-10-13T12:12:56.225Z,17.40
2022-10-13T12:15:40.306Z,16.90
2022-10-13T12:18:34.246Z,16.05
2022-10-13T12:21:18.217Z,19.08
2022-10-13T12:24:23.250Z,18.40
2022-10-13T12:27:35.199Z,18.92
2022-10-13T12:30:29.184Z,20.50
2022-10-13T12:33:11.222Z,18.83
2022-10-13T12:35:58.254Z,17.10
2022-10-13T12:38:31.310Z,17.35
2022-10-13T12:41:18.234Z,17.15
2022-10-13T12:43:52.343Z,19.48
2022-10-13T12:46:53.241Z,19.83
2022-10-13T12:49:48.228Z,17.77
2022-10-13T12:52:35.243Z,16.00
2022-10-13T12:55:15.271Z,19.35
2022-10-13T12:58:09.234Z,20.42
2022-10-13T13:01:34.266Z,19.75
2022-10-13T13:04:22.419Z,19.98
2022-10-13T13:07:11.226Z,17.92
2022-10-13T13:09:44.361Z,17.70
2022-10-13T13:12:34.237Z,19.95
2022-10-13T13:15:50.285Z,19.35
2022-10-13T13:18:50.238Z,19.17
2022-10-13T13:21:44.334Z,17.70
2022-10-13T13:24:39.936Z,18.42
2022-10-13T13:27:38.243Z,18.92
2022-10-13T13:30:34.261Z,19.33
2022-10-13T13:33:21.237Z,16.63
2022-10-13T13:35:54.316Z,17.10
2022-10-13T13:38:41.257Z,19.25
2022-10-13T13:41:24.281Z,19.60
2022-10-13T13:44:11.259Z,17.50
2022-10-13T13:46:57.206Z,17.90
2022-10-13T13:49:44.256Z,17.40
2022-10-13T13:52:24.266Z,15.25
2022-10-13T13:55:18.264Z,16.88
2022-10-13T13:58:12.259Z,17.20
2022-10-13T14:01:06.278Z,19.08
2022-10-13T14:03:53.284Z,17.67
2022-10-13T14:06:27.559Z,20.13
2022-10-13T14:09:14.277Z,23.52
2022-10-13T14:11:47.332Z,20.65
2022-10-13T14:14:37.275Z,20.05
2022-10-13T14:17:18.275Z,20.05
2022-10-13T14:20:05.300Z,17.85
2022-10-13T14:22:38.351Z,18.13
2022-10-13T14:25:25.257Z,18.83
2022-10-13T14:28:05.418Z,17.40
2022-10-13T14:30:52.276Z,17.42
2022-10-13T14:33:25.377Z,17.70
2022-10-13T14:36:14.303Z,17.17
2022-10-13T14:38:47.407Z,17.85
2022-10-13T14:41:34.285Z,20.75
2022-10-13T14:44:14.267Z,19.58
2022-10-13T14:47:01.303Z,19.27
2022-10-13T14:49:34.364Z,20.13
2022-10-13T14:52:21.271Z,19.45
2022-10-13T14:55:01.301Z,19.48
2022-10-13T14:57:48.268Z,22.45
2022-10-13T15:00:22.378Z,18.42
2022-10-13T15:03:09.423Z,20.08
2022-10-13T15:05:42.448Z,20.27
2022-10-13T15:08:29.304Z,19.08
2022-10-13T15:11:09.361Z,18.83
2022-10-13T15:13:56.321Z,21.92
2022-10-13T15:16:38.380Z,18.30
2022-10-13T15:19:25.305Z,19.20
2022-10-13T15:22:05.315Z,18.17
2022-10-13T15:24:59.302Z,17.83
2022-10-13T15:27:53.318Z,18.13
2022-10-13T15:30:47.294Z,18.75
2022-10-13T15:33:34.325Z,19.98
2022-10-13T15:36:15.326Z,21.13
2022-10-13T15:39:02.308Z,20.15
2022-10-13T15:41:35.379Z,20.90
2022-10-13T15:44:23.310Z,19.95
2022-10-13T15:47:08.203Z,20.10
2022-10-13T15:49:55.327Z,23.17
2022-10-13T15:52:33.695Z,22.25
2022-10-13T15:55:21.317Z,21.67
2022-10-13T15:57:54.477Z,20.92
2022-10-13T16:00:41.414Z,20.17
2022-10-13T16:03:27.307Z,22.92
2022-10-13T16:06:23.294Z,23.02
2022-10-13T16:09:10.332Z,23.25
2022-10-13T16:11:43.419Z,24.13
2022-10-13T16:14:30.342Z,25.05
2022-10-13T16:17:04.967Z,22.73
2022-10-13T16:19:51.350Z,23.90
2022-10-13T16:22:31.346Z,25.08
2022-10-13T16:25:18.371Z,24.17
2022-10-13T16:27:51.396Z,22.90
2022-10-13T16:30:38.366Z,21.67
2022-10-13T16:33:11.418Z,22.48
2022-10-13T16:35:58.325Z,22.90
2022-10-13T16:38:31.414Z,24.17
2022-10-13T16:41:21.353Z,24.35
2022-10-13T16:44:02.370Z,24.60
2022-10-13T16:46:56.359Z,25.42
2022-10-13T16:49:43.358Z,23.42
2022-10-13T16:52:16.407Z,25.10
2022-10-13T16:55:03.363Z,24.80
2022-10-13T16:57:44.363Z,27.05
2022-10-13T17:00:31.364Z,24.95
2022-10-13T17:03:04.424Z,25.05
2022-10-13T17:05:51.382Z,27.17
2022-10-13T17:08:31.377Z,27.55
2022-10-13T17:11:36.362Z,26.75
2022-10-13T17:14:23.352Z,27.45
2022-10-13T17:17:03.370Z,27.42
2022-10-13T17:19:50.348Z,26.65
2022-10-13T17:22:30.381Z,27.30
2022-10-13T17:25:24.361Z,28.67
2022-10-13T17:28:18.411Z,27.15
2022-10-13T17:31:10.375Z,27.20
2022-10-13T17:33:51.362Z,26.35
2022-10-13T17:36:39.390Z,25.50
2022-10-13T17:39:17.675Z,26.75
2022-10-13T17:42:04.382Z,27.20
2022-10-13T17:44:44.370Z,27.83
2022-10-13T17:47:31.348Z,28.02
2022-10-13T17:50:04.452Z,28.42
2022-10-13T17:52:51.393Z,28.15
2022-10-13T17:55:31.376Z,28.80
2022-10-13T17:58:18.390Z,27.88
2022-10-13T18:01:12.298Z,29.42
2022-10-13T18:04:05.382Z,26.92
2022-10-13T18:06:47.583Z,27.88
2022-10-13T18:09:30.374Z,30.70
2022-10-13T18:12:10.388Z,32.38
2022-10-13T18:14:50.409Z,31.10
2022-10-13T18:17:44.386Z,30.98
2022-10-13T18:20:31.369Z,30.75
2022-10-13T18:23:12.428Z,32.85
2022-10-13T18:25:59.383Z,32.47
2022-10-13T18:28:43.502Z,30.60
2022-10-13T18:31:36.509Z,30.98
2022-10-13T18:34:12.526Z,29.65
2022-10-13T18:37:03.377Z,30.92
2022-10-13T18:39:43.397Z,31.52
2022-10-13T18:42:30.386Z,30.63
2022-10-13T18:45:03.596Z,29.85
2022-10-13T18:47:50.412Z,29.90
2022-10-13T18:50:23.472Z,29.67
2022-10-13T18:53:10.387Z,29.38
2022-10-13T18:55:43.868Z,30.38
2022-10-13T18:58:30.399Z,32.25
2022-10-13T19:01:23.462Z,30.90
2022-10-13T19:04:19.401Z,30.98
2022-10-13T19:07:06.421Z,27.75
2022-10-13T19:09:39.470Z,28.42
2022-10-13T19:12:26.425Z,31.75
2022-10-13T19:14:59.500Z,31.02
2022-10-13T19:17:46.444Z,28.30
2022-10-13T19:20:22.529Z,30.65
2022-10-13T19:23:09.426Z,31.45
2022-10-13T19:25:48.481Z,29.52
2022-10-13T19:28:42.466Z,30.08
2022-10-13T19:31:38.401Z,28.55
2022-10-13T19:34:32.409Z,27.70
2022-10-13T19:37:19.912Z,28.38
2022-10-13T19:39:53.510Z,29.30
2022-10-13T19:42:40.444Z,29.30
2022-10-13T19:45:20.409Z,29.02
2022-10-13T19:48:14.516Z,29.50
2022-10-13T19:51:08.437Z,27.83
2022-10-13T19:53:55.448Z,28.58
2022-10-13T19:56:38.455Z,29.42
2022-10-13T19:59:32.436Z,27.88
2022-10-13T20:02:19.417Z,29.20
2022-10-13T20:04:52.493Z,30.77
2022-10-13T20:07:40.442Z,31.17
2022-10-13T20:10:20.442Z,31.05
2022-10-13T20:13:14.437Z,31.52
2022-10-13T20:16:08.404Z,30.05
2022-10-13T20:19:11.429Z,28.65
2022-10-13T20:22:07.440Z,31.98
2022-10-13T20:24:54.443Z,30.13
2022-10-13T20:27:34.433Z,28.48
2022-10-13T20:30:36.431Z,28.85
2022-10-13T20:33:23.447Z,28.55
2022-10-13T20:35:56.504Z,29.00
2022-10-13T20:38:43.478Z,29.13
2022-10-13T20:41:32.501Z,28.77
2022-10-13T20:44:19.440Z,27.52
2022-10-13T20:46:52.585Z,28.27
2022-10-13T20:49:39.426Z,28.90
2022-10-13T20:52:12.522Z,29.52
2022-10-13T20:54:59.443Z,26.95
2022-10-13T20:57:32.521Z,28.40
2022-10-13T21:00:19.458Z,27.83
2022-10-13T21:02:53.513Z,27.15
2022-10-13T21:05:40.461Z,27.27
2022-10-13T21:08:13.512Z,27.38
2022-10-13T21:11:01.461Z,26.85
2022-10-13T21:13:41.473Z,27.77
2022-10-13T21:16:30.475Z,29.35
2022-10-13T21:19:11.465Z,28.30
2022-10-13T21:22:05.448Z,29.58
2022-10-13T21:24:59.458Z,30.02
2022-10-13T21:27:46.440Z,31.05
2022-10-13T21:30:19.549Z,30.92
2022-10-13T21:33:06.469Z,30.13
2022-10-13T21:35:41.518Z,29.25
2022-10-13T21:38:28.473Z,29.38
2022-10-13T21:41:08.464Z,28.05
2022-10-13T21:43:56.472Z,28.38
2022-10-13T21:46:41.469Z,28.92
2022-10-13T21:49:28.492Z,27.73
2022-10-13T21:52:01.538Z,25.58
2022-10-13T21:54:48.462Z,26.08
2022-10-13T21:57:21.724Z,27.85
2022-10-13T22:00:08.475Z,27.52
2022-10-13T22:02:41.616Z,27.13
2022-10-13T22:05:29.464Z,26.38
2022-10-13T22:08:02.540Z,24.33
2022-10-13T22:10:49.493Z,25.05
2022-10-13T22:13:22.580Z,24.65
2022-10-13T22:16:25.514Z,25.90
2022-10-13T22:19:00.556Z,24.98
2022-10-13T22:21:50.493Z,26.65
2022-10-13T22:24:26.560Z,26.15
2022-10-13T22:27:13.468Z,27.10
2022-10-13T22:29:53.485Z,25.40
2022-10-13T22:32:40.478Z,23.90
2022-10-13T22:35:20.524Z,25.83
2022-10-13T22:38:14.488Z,26.30
2022-10-13T22:41:08.496Z,26.25
2022-10-13T22:43:56.500Z,25.50
2022-10-13T22:46:40.494Z,25.02
2022-10-13T22:49:34.505Z,25.73
2022-10-13T22:52:28.518Z,26.33
2022-10-13T22:55:22.520Z,26.05
2022-10-13T22:58:09.485Z,23.58
2022-10-13T23:00:50.518Z,24.05
2022-10-13T23:03:44.568Z,24.80
2022-10-13T23:06:44.502Z,23.08
2022-10-13T23:09:38.492Z,23.50
2022-10-13T23:12:25.489Z,24.42
2022-10-13T23:14:58.766Z,24.25
2022-10-13T23:17:45.497Z,22.95
2022-10-13T23:20:25.517Z,24.27
2022-10-13T23:23:19.499Z,24.02
2022-10-13T23:26:14.507Z,22.27
2022-10-13T23:28:48.671Z,21.38
2022-10-13T23:31:35.506Z,23.25
2022-10-13T23:34:15.527Z,24.23
2022-10-13T23:37:02.496Z,23.88
2022-10-13T23:39:35.713Z,21.88
2022-10-13T23:42:22.527Z,22.80
2022-10-13T23:44:55.591Z,23.67
2022-10-13T23:47:42.521Z,22.10
2022-10-13T23:50:16.580Z,22.00
2022-10-13T23:53:03.529Z,20.40
2022-10-13T23:55:36.594Z,23.02
2022-10-13T23:58:23.509Z,22.42
